Flight Track Log - Related Links

Times and Time Zones

All times are in EDT time to prevent confusion due to time zone crossing. See the N778AN flight status page for this flight to view local times or setup timezone preferences in your user account.

Time Position Orientation Groundspeed Altitude Reporting Facility
EDT Latitude Longitude Course Direction KTS MPH feet Rate Location/Type
Tue 12:32:51 PM 51.4614 -0.4061 147° Southeast 172 198 100  Level FlightAware UK
Tue 12:33:01 PM 51.4547 -0.3990 144° Southeast 166 191 1,900 6,667 Climbing FlightAware ADS-B
Tue 12:33:09 PM 51.4486 -0.3978 173° South 176 203 2,100 1,500 Climbing FlightAware ADS-B
Tue 12:33:17 PM 51.4421 -0.4001 193° South 186 214 2,300 1,385 Climbing FlightAware ADS-B
Tue 12:33:22 PM 51.4385 -0.4031 207° Southwest 189 217 2,400 2,000 Climbing FlightAware ADS-B
Tue 12:33:26 PM 51.4352 -0.4068 215° Southwest 193 222 2,600 1,667 Climbing FlightAware ADS-B
Tue 12:33:40 PM 51.4252 -0.4199 219° Southwest 202 232 2,900 1,000 Climbing FlightAware ADS-B
Tue 12:33:56 PM 51.4132 -0.4360 220° Southwest 229 264 3,100 857 Climbing FlightAware ADS-B
Tue 12:34:08 PM 51.4030 -0.4498 220° Southwest 245 282 3,300 1,263 Climbing FlightAware ADS-B
Tue 12:34:15 PM 51.3969 -0.4578 220° Southwest 251 289 3,500 1,895 Climbing FlightAware ADS-B
Tue 12:34:27 PM 51.3858 -0.4716 218° Southwest 256 295 3,900 2,250 Climbing FlightAware ADS-B
Tue 12:34:31 PM 51.3822 -0.4766 221° Southwest 258 297 4,100 2,571 Climbing FlightAware ADS-B
Tue 12:34:34 PM 51.3796 -0.4806 224° Southwest 259 298 4,200 1,714 Climbing FlightAware ADS-B
Tue 12:34:38 PM 51.3764 -0.4864 228° Southwest 261 300 4,300 1,333 Climbing FlightAware ADS-B
Tue 12:34:43 PM 51.3731 -0.4938 235° Southwest 264 304 4,400 2,250 Climbing FlightAware ADS-B
Tue 12:34:46 PM 51.3709 -0.4997 239° Southwest 265 305 4,600 3,000 Climbing FlightAware ADS-B
Tue 12:35:01 PM 51.3621 -0.5264 242° Southwest 271 312 5,300 2,750 Climbing FlightAware ADS-B
Tue 12:35:10 PM 51.3579 -0.5421 247° West 270 311 5,700 2,571 Climbing FlightAware ADS-B
Tue 12:35:15 PM 51.3564 -0.5518 256° West 270 311 5,900 2,182 Climbing FlightAware ADS-B
Tue 12:35:21 PM 51.3555 -0.5630 263° West 272 313 6,100 2,000 Climbing FlightAware ADS-B
Tue 12:35:24 PM 51.3555 -0.5695 270° West 272 313 6,200 1,636 Climbing FlightAware ADS-B
Tue 12:35:32 PM 51.3560 -0.5849 273° West 276 318 6,400 2,000 Climbing FlightAware ADS-B
Tue 12:35:39 PM 51.3572 -0.5993 278° West 278 320 6,700 2,455 Climbing FlightAware ADS-B
Tue 12:35:54 PM 51.3605 -0.6304 280° West 281 323 7,300 2,323 Climbing FlightAware ADS-B
Tue 12:36:10 PM 51.3641 -0.6623 280° West 280 322 7,900 2,129 Climbing FlightAware ADS-B
Tue 12:36:25 PM 51.3678 -0.6939 281° West 280 322 8,400 2,000 Climbing FlightAware ADS-B
Tue 12:36:40 PM 51.3714 -0.7244 281° West 284 327 8,900 2,323 Climbing FlightAware ADS-B
Tue 12:36:56 PM 51.3756 -0.7574 282° West 285 328 9,600 2,217 Climbing FlightAware ADS-B
Tue 12:37:26 PM 51.3837 -0.8211 282° West 296 341 10,600 1,574 Climbing FlightAware ADS-B
Tue 12:37:57 PM 51.3918 -0.8900 281° West 326 375 11,200 -735 Climbing FlightAware ADS-B
Tue 12:38:15 PM 51.3970 -0.9329 281° West 346 398 10,000 1,161 Descending FlightAware UK
Tue 12:38:28 PM 51.4011 -0.9660 281° West 354 407 11,800 3,488 Climbing FlightAware ADS-B
Tue 12:38:58 PM 51.4108 -1.0447 281° West 362 417 12,500 1,200 Climbing FlightAware ADS-B
Tue 12:39:08 PM 51.4142 -1.0719 281° West 365 420 12,600 706 Climbing FlightAware ADS-B
Tue 12:39:15 PM 51.4170 -1.0894 284° West 365 420 12,700 600 Climbing FlightAware ADS-B
Tue 12:39:48 PM 51.4370 -1.1719 291° West 367 422 13,000 667 Climbing FlightAware ADS-B
Tue 12:40:18 PM 51.4554 -1.2473 291° West 366 421 13,400 -1,080 Climbing FlightAware ADS-B
Tue 12:40:38 PM 51.4679 -1.3000 291° West 376 433 12,100 800 Descending FlightAware UK
Tue 12:40:48 PM 51.4731 -1.3236 291° West 366 421 13,800 4,200 Climbing FlightAware ADS-B
Tue 12:41:18 PM 51.4910 -1.3997 291° West 366 421 14,900 2,700 Climbing FlightAware ADS-B
Tue 12:41:48 PM 51.5095 -1.4768 291° West 364 419 16,500 2,900 Climbing FlightAware ADS-B
Tue 12:42:18 PM 51.5265 -1.5514 290° West 370 426 17,800 2,557 Climbing FlightAware ADS-B
Tue 12:42:49 PM 51.5413 -1.6333 286° West 375 432 19,100 600 Climbing FlightAware ADS-B
Tue 12:43:08 PM 51.5507 -1.6858 286° West 396 456 18,300 2,471 Descending FlightAware UK
Tue 12:43:23 PM 51.5581 -1.7261 286° West 380 437 20,500 4,435 Climbing FlightAware ADS-B
Tue 12:43:54 PM 51.5736 -1.8090 287° West 384 442 21,700 737 Climbing FlightAware ADS-B
Tue 12:44:20 PM 51.5873 -1.8810 287° West 412 474 21,200 2,182 Descending FlightAware UK
Tue 12:44:27 PM 51.5913 -1.9011 287° West 391 450 22,900 2,000 Climbing FlightAware ADS-B
Tue 12:44:50 PM 51.6037 -1.9643 287° West 418 481 22,200 2,129 Descending FlightAware UK
Tue 12:44:58 PM 51.6084 -1.9874 287° West 396 456 24,000 1,750 Climbing FlightAware ADS-B
Tue 12:45:14 PM 51.6173 -2.0318 287° West 424 488 22,900 1,935 Descending FlightAware UK
Tue 12:45:29 PM 51.6259 -2.0733 287° West 402 463 25,000 2,000 Climbing FlightAware ADS-B
Tue 12:45:44 PM 51.6344 -2.1160 287° West 428 493 23,900 1,800 Descending FlightAware UK
Tue 12:45:59 PM 51.6435 -2.1611 287° West 407 468 25,900 1,800 Climbing FlightAware ADS-B
Tue 12:46:14 PM 51.6520 -2.2025 287° West 438 504 24,800 1,655 Descending FlightAware UK
Tue 12:46:28 PM 51.6602 -2.2437 287° West 411 473 26,700 1,655 Climbing FlightAware ADS-B
Tue 12:46:43 PM 51.6675 -2.2900 287° West 440 506 25,600 1,688 Descending FlightAware UK
Tue 12:47:00 PM 51.6746 -2.3387 287° West 414 476 27,600 1,571 Climbing FlightAware ADS-B
Tue 12:47:25 PM 51.6855 -2.4163 287° West 448 516 26,700 1,455 Descending FlightAware UK
Tue 12:47:33 PM 51.6890 -2.4395 287° West 420 483 28,400 1,429 Climbing FlightAware ADS-B
Tue 12:48:07 PM 51.7045 -2.5436 287° West 456 525 27,700 -346 Descending FlightAware UK
Tue 12:48:25 PM 51.7132 -2.5997 284° West 462 532 28,100 1,500 Climbing FlightAware UK
Tue 12:48:43 PM 51.7217 -2.6560 284° West 468 539 28,600 1,667 Climbing FlightAware UK
Tue 12:49:01 PM 51.7298 -2.7109 283° West 468 539 29,100 1,333 Climbing FlightAware UK
Tue 12:49:19 PM 51.7385 -2.7660 284° West 472 543 29,400 1,286 Climbing FlightAware UK
Tue 12:49:43 PM 51.7505 -2.8407 285° West 476 548 30,000 1,286 Climbing FlightAware UK
Tue 12:50:01 PM 51.7592 -2.8970 284° West 478 550 30,300 1,231 Climbing FlightAware UK
Tue 12:51:01 PM 51.7888 -3.0862 284° West 482 555 31,600 1,368 Climbing FlightAware UK
Tue 12:51:55 PM 51.8133 -3.2558 283° West 476 548 32,900 1,385 Climbing FlightAware UK
Tue 12:52:19 PM 51.8244 -3.3310 283° West 476 548 33,400 1,000 Climbing FlightAware UK
Tue 12:52:43 PM 51.8351 -3.4058 283° West 474 545 33,700 875 Climbing FlightAware UK
Tue 12:53:07 PM 51.8458 -3.4813 283° West 474 545 34,100 1,000 Climbing FlightAware UK
Tue 12:53:25 PM 51.8539 -3.5382 283° West 478 550 34,400 571 Climbing FlightAware UK
Tue 12:53:49 PM 51.8648 -3.6142 283° West 476 548 34,500  Climbing FlightAware UK
Tue 12:54:07 PM 51.8730 -3.6713 283° West 476 548 34,400  Descending FlightAware UK
Tue 12:54:37 PM 51.8864 -3.7663 283° West 476 548 34,500 125 Climbing FlightAware UK
Tue 12:54:55 PM 51.8944 -3.8232 283° West 478 550 34,500  Level FlightAware UK
Tue 12:55:13 PM 51.9023 -3.8801 283° West 474 545 34,500  Level FlightAware UK
Tue 12:55:31 PM 51.9103 -3.9370 283° West 474 545 34,500  Level FlightAware UK
Tue 12:55:49 PM 51.9183 -3.9940 283° West 476 548 34,500  Level FlightAware UK
Tue 12:56:07 PM 51.9262 -4.0512 283° West 478 550 34,500  Level FlightAware UK
Tue 12:56:25 PM 51.9341 -4.1082 283° West 480 552 34,500  Level FlightAware UK
Tue 12:56:43 PM 51.9420 -4.1652 283° West 480 552 34,500  Level FlightAware UK
Tue 12:57:01 PM 51.9498 -4.2222 283° West 478 550 34,500  Level FlightAware UK
Tue 12:57:18 PM 51.9574 -4.2785 282° West 478 550 34,500  Level FlightAware UK
Tue 12:57:36 PM 51.9650 -4.3354 282° West 478 550 34,500  Level FlightAware UK
Tue 12:58:00 PM 51.9753 -4.4111 282° West 480 552 34,500  Level FlightAware UK
Tue 12:58:18 PM 51.9830 -4.4680 282° West 478 550 34,500  Level FlightAware UK
Tue 12:58:42 PM 51.9932 -4.5436 282° West 478 550 34,500  Level FlightAware UK
Tue 12:59:00 PM 52.0007 -4.6003 282° West 478 550 34,500  Level FlightAware UK
Tue 12:59:18 PM 52.0083 -4.6570 282° West 476 548 34,500  Level FlightAware UK
Tue 12:59:36 PM 52.0158 -4.7137 282° West 478 550 34,500  Level FlightAware UK
Tue 12:59:54 PM 52.0232 -4.7705 282° West 480 552 34,500  Level FlightAware UK
Tue 01:00:12 PM 52.0306 -4.8272 282° West 478 550 34,500  Level FlightAware UK
Tue 01:00:30 PM 52.0380 -4.8832 282° West 478 550 34,500  Level FlightAware UK
Tue 01:00:54 PM 52.0478 -4.9588 282° West 478 550 34,500  Level FlightAware UK
Tue 01:01:18 PM 52.0576 -5.0342 282° West 478 550 34,500  Level FlightAware UK
Tue 01:01:36 PM 52.0649 -5.0907 282° West 478 550 34,500  Level FlightAware UK
Tue 01:01:54 PM 52.0721 -5.1472 282° West 478 550 34,500  Level FlightAware UK
Tue 01:02:12 PM 52.0763 -5.2039 277° West 480 552 34,500  Level FlightAware UK
Tue 01:02:30 PM 52.0787 -5.2613 274° West 480 552 34,500  Level FlightAware UK
Tue 01:02:48 PM 52.0777 -5.3189 268° West 478 550 34,500  Level FlightAware UK
Tue 01:03:06 PM 52.0732 -5.3759 263° West 476 548 34,500 3,750 Level FlightAware UK
Tue 01:03:12 PM 52.0730 -5.3790 263° West 426 490 36,000  Climbing FlightAware ADS-B
Tue 01:03:30 PM 52.0674 -5.4519 263° West 476 548 34,500 -2,500 Descending FlightAware UK
Tue 01:03:48 PM 52.0629 -5.5088 263° West 476 548 34,500 3,333 Level FlightAware UK
Tue 01:03:57 PM 52.0620 -5.5230 263° West 424 488 36,000 250 Climbing FlightAware ADS-B
Tue 01:04:12 PM 52.0568 -5.5844 263° West 472 543 34,600 -2,364 Descending FlightAware UK
Tue 01:04:30 PM 52.0523 -5.6408 263° West 468 539 34,700 4,080 Climbing FlightAware UK
Tue 01:04:37 PM 52.0510 -5.6490 263° West 420 483 36,300 500 Climbing FlightAware ADS-B
Tue 01:04:54 PM 52.0459 -5.7157 263° West 468 539 34,900 -2,057 Descending FlightAware UK
Tue 01:05:12 PM 52.0410 -5.7720 262° West 472 543 35,100 3,857 Climbing FlightAware UK
Tue 01:05:22 PM 52.0390 -5.7940 262° West 427 491 36,700 400 Climbing FlightAware ADS-B
Tue 01:05:42 PM 52.0328 -5.8667 262° West 474 545 35,300 450 Descending FlightAware UK
Tue 01:06:02 PM 52.0290 -5.9230 262° West 431 496 37,000 667 Climbing FlightAware ADS-B
Tue 01:06:18 PM 52.0247 -5.9831 262° West 472 543 35,700 -2,118 Descending FlightAware UK
Tue 01:06:36 PM 52.0207 -6.0408 264° West 474 545 35,800 500 Climbing FlightAware UK
Tue 01:06:54 PM 52.0166 -6.0993 264° West 476 548 36,000 4,857 Climbing FlightAware UK
Tue 01:06:57 PM 52.0160 -6.1010 264° West 438 504 37,500 333 Climbing FlightAware ADS-B
Tue 01:07:12 PM 52.0122 -6.1579 264° West 476 548 36,100 -2,182 Descending FlightAware UK
Tue 01:07:30 PM 52.0079 -6.2165 263° West 476 548 36,300 3,600 Climbing FlightAware UK
Tue 01:07:42 PM 52.0050 -6.2520 263° West 439 505 37,900 400 Climbing FlightAware ADS-B
Tue 01:08:00 PM 52.0003 -6.3141 263° West 474 545 36,500 -2,500 Descending FlightAware UK
Tue 01:08:18 PM 51.9958 -6.3730 263° West 474 545 36,400 4,091 Descending FlightAware UK
Tue 01:08:22 PM 51.9950 -6.3830 263° West 444 511 38,000 250 Climbing FlightAware ADS-B
Tue 01:08:42 PM 51.9896 -6.4522 263° West 476 548 36,500 -2,526 Descending FlightAware UK
Tue 01:09:00 PM 51.9848 -6.5119 262° West 476 548 36,400 4,500 Descending FlightAware UK
Tue 01:09:02 PM 51.9850 -6.5130 262° West 444 511 38,000  Climbing FlightAware ADS-B
Tue 01:09:18 PM 51.9802 -6.5714 262° West 474 545 36,400 -2,647 Descending FlightAware UK
Tue 01:09:36 PM 51.9756 -6.6308 263° West 476 548 36,500 3,310 Climbing FlightAware UK
Tue 01:09:47 PM 51.9730 -6.6600 263° West 444 511 38,000 -200 Climbing FlightAware ADS-B
Tue 01:10:06 PM 51.9677 -6.7297 263° West 476 548 36,400 -2,595 Descending FlightAware UK
Tue 01:10:24 PM 51.9630 -6.7889 263° West 478 550 36,400 4,571 Level FlightAware UK
Tue 01:10:27 PM 51.9630 -6.7900 263° West 443 510 38,000  Climbing FlightAware ADS-B
Tue 01:10:42 PM 51.9583 -6.8480 263° West 478 550 36,400 -2,909 Descending FlightAware UK
Tue 01:11:00 PM 51.9536 -6.9070 263° West 478 550 36,400 3,840 Level FlightAware UK
Tue 01:11:07 PM 51.9520 -6.9220 263° West 441 507 38,000  Climbing FlightAware ADS-B
Tue 01:11:24 PM 51.9474 -6.9856 263° West 474 545 36,400 -2,571 Descending FlightAware UK
Tue 01:11:42 PM 51.9424 -7.0445 262° West 476 548 36,500 3,429 Climbing FlightAware UK
Tue 01:11:52 PM 51.9400 -7.0660 262° West 441 507 38,000  Climbing FlightAware ADS-B
Tue 01:12:12 PM 51.9341 -7.1425 262° West 476 548 36,500 -2,526 Descending FlightAware UK
Tue 01:12:30 PM 51.9292 -7.2006 262° West 476 548 36,400 4,500 Descending FlightAware UK
Tue 01:12:32 PM 51.9290 -7.2030 262° West 440 506 38,000  Climbing FlightAware ADS-B
Tue 01:12:48 PM 51.9243 -7.2594 262° West 474 545 36,400 -2,647 Descending FlightAware UK
Tue 01:13:06 PM 51.9193 -7.3180 262° West 474 545 36,500 3,310 Climbing FlightAware UK
Tue 01:13:17 PM 51.9170 -7.3480 262° West 441 507 38,000  Climbing FlightAware ADS-B
Tue 01:13:36 PM 51.9109 -7.4158 262° West 474 545 36,500  Descending FlightAware UK
Tue 01:13:52 PM 51.9070 -7.4630 262° West 441 507 38,000  Climbing FlightAware ADS-B
Tue 01:13:54 PM 51.9059 -7.4744 262° West 474 545 36,500 -4,500 Descending FlightAware UK
Tue 01:14:12 PM 51.9010 -7.5331 262° West 474 545 36,500  Level FlightAware UK
Tue 01:14:30 PM 51.8961 -7.5917 262° West 474 545 36,500  Level FlightAware UK
Tue 01:14:48 PM 51.8909 -7.6502 262° West 474 545 36,500  Level FlightAware UK
Tue 01:15:06 PM 51.8857 -7.7087 262° West 474 545 36,500  Level FlightAware UK
Tue 01:15:24 PM 51.8804 -7.7672 262° West 474 545 36,500  Level FlightAware UK
Tue 01:15:42 PM 51.8750 -7.8257 262° West 474 545 36,500  Level FlightAware UK
Tue 01:15:47 PM 51.8750 -7.8220 262° West 38,000  Climbing FlightAware ADS-B
Tue 01:16:06 PM 51.8680 -7.9036 262° West 474 545 36,500 -2,432 Descending FlightAware UK
Tue 01:16:24 PM 51.8628 -7.9621 262° West 472 543 36,500  Level FlightAware UK
Tue 01:16:42 PM 51.8576 -8.0206 262° West 474 545 36,500  Level FlightAware UK
Tue 01:17:00 PM 51.8524 -8.0791 262° West 474 545 36,500  Level FlightAware UK
Tue 01:17:18 PM 51.8467 -8.1375 261° West 472 543 36,500  Level FlightAware UK
Tue 01:17:36 PM 51.8412 -8.1959 261° West 472 543 36,500 2,045 Level FlightAware UK
Tue 01:18:02 PM 51.8350 -8.2680 261° West 441 507 38,000  Climbing FlightAware ADS-B
Tue 01:18:18 PM 51.8285 -8.3319 261° West 476 548 36,500 -2,647 Descending FlightAware UK
Tue 01:18:36 PM 51.8229 -8.3905 261° West 474 545 36,500  Level FlightAware UK
Tue 01:18:54 PM 51.8173 -8.4490 261° West 476 548 36,500  Level FlightAware UK
Tue 01:19:12 PM 51.8118 -8.5076 261° West 474 545 36,500  Level FlightAware UK
Tue 01:19:30 PM 51.8063 -8.5660 261° West 474 545 36,500  Level FlightAware UK
Tue 01:19:48 PM 51.8008 -8.6244 261° West 474 545 36,500 1,250 Level FlightAware UK
Tue 01:20:42 PM 51.7840 -8.7970 261° West 441 507 38,000  Climbing FlightAware ADS-B
Tue 01:21:00 PM 51.7779 -8.8575 261° West 472 543 36,500  Descending FlightAware UK
Tue 01:21:22 PM 51.7710 -8.9280 261° West 441 507 38,000  Climbing FlightAware ADS-B
Tue 01:21:42 PM 51.7643 -8.9937 261° West 474 545 36,500  Descending FlightAware UK
Tue 01:22:02 PM 51.7590 -9.0530 261° West 441 507 38,000 1,286 Climbing FlightAware ADS-B
Tue 01:22:52 PM 51.7420 -9.2130 260° West 441 507 38,000  Level FlightAware ADS-B
Tue 01:23:32 PM 51.7290 -9.3460 261° West 441 507 38,000  Level FlightAware ADS-B
Tue 01:24:12 PM 51.7160 -9.4730 261° West 442 509 38,000  Level FlightAware ADS-B
Tue 01:24:57 PM 51.7000 -9.6190 260° West 441 507 38,000  Level FlightAware ADS-B
Tue 01:25:32 PM 51.6880 -9.7360 261° West 441 507 38,000  Level FlightAware ADS-B
Tue 01:26:22 PM 51.6710 -9.8930 260° West 441 507 38,000  Level FlightAware ADS-B
Tue 01:27:02 PM 51.6570 -10.0230 260° West 440 506 38,000  Level FlightAware ADS-B
Tue 01:27:42 PM 51.6430 -10.1530 260° West 440 506 38,000  Level FlightAware ADS-B
Tue 01:28:22 PM 51.6280 -10.2810 259° West 439 505 38,000  Level FlightAware ADS-B
Tue 01:29:07 PM 51.6120 -10.4250 260° West 437 503 38,000  Level FlightAware ADS-B
Tue 01:29:52 PM 51.5950 -10.5770 260° West 436 502 38,000  Level FlightAware ADS-B
Tue 01:30:32 PM 51.5810 -10.7000 260° West 437 503 38,000  Level FlightAware ADS-B
Tue 01:31:12 PM 51.5660 -10.8270 259° West 437 503 38,000  Level FlightAware ADS-B
Tue 01:31:57 PM 51.5500 -10.9710 260° West 435 501 38,000  Level FlightAware ADS-B
Tue 01:32:37 PM 51.5350 -11.0970 259° West 434 499 38,000  Level FlightAware ADS-B
Tue 01:33:22 PM 51.5180 -11.2400 259° West 434 499 38,000  Level FlightAware ADS-B
Tue 01:33:57 PM 51.5050 -11.3410 258° West 433 498 38,000  Level FlightAware ADS-B
Tue 01:34:42 PM 51.4880 -11.4870 259° West 433 498 38,000  Level FlightAware ADS-B
Tue 01:35:22 PM 51.4720 -11.6150 259° West 433 498 38,000  Level FlightAware ADS-B
Tue 01:36:22 PM 51.4480 -11.8070 259° West 433 498 38,000  Level FlightAware ADS-B
Tue 01:37:07 PM 51.4300 -11.9500 259° West 432 497 38,000  Level FlightAware ADS-B
Tue 01:37:47 PM 51.4140 -12.0740 258° West 431 496 38,000  Level FlightAware ADS-B
Tue 01:38:27 PM 51.3980 -12.1970 258° West 430 495 38,000  Level FlightAware ADS-B
Tue 01:39:07 PM 51.3820 -12.3250 259° West 429 494 38,000  Level FlightAware ADS-B
Tue 01:39:52 PM 51.3660 -12.4480 258° West 429 494 38,000  Level FlightAware ADS-B
Tue 01:40:32 PM 51.3530 -12.5540 259° West 429 494 38,000  Level FlightAware ADS-B
Tue 01:41:12 PM 51.3410 -12.6600 260° West 429 494 38,000  Level FlightAware ADS-B
Tue 01:41:52 PM 51.3280 -12.7660 259° West 429 494 38,000  Level FlightAware ADS-B
Tue 01:42:42 PM 51.3120 -12.8990 259° West 429 494 38,000  Level FlightAware ADS-B
Tue 01:43:22 PM 51.2990 -13.0050 259° West 429 494 38,000  Level FlightAware ADS-B
Tue 01:44:07 PM 51.2860 -13.1110 259° West 429 494 38,000  Level FlightAware ADS-B
Tue 01:44:42 PM 51.2730 -13.2160 259° West 429 494 38,000  Level FlightAware ADS-B
Tue 01:45:22 PM 51.2600 -13.3220 259° West 429 494 38,000  Level FlightAware ADS-B
Tue 01:46:12 PM 51.2440 -13.4550 259° West 429 494 38,000  Level FlightAware ADS-B
Tue 01:46:52 PM 51.2310 -13.5600 259° West 429 494 38,000  Level FlightAware ADS-B
Tue 01:47:32 PM 51.2180 -13.6660 259° West 429 494 38,000  Level FlightAware ADS-B
Tue 01:48:12 PM 51.2050 -13.7720 259° West 429 494 38,000  Level FlightAware ADS-B
Tue 01:48:52 PM 51.1920 -13.8780 259° West 429 494 38,000  Level FlightAware ADS-B
Tue 01:51:00 PM 51.2337 -14.2765 280° West  Level Estimated
Tue 01:52:00 PM 51.2529 -14.4636 279° West  Level Estimated
Tue 01:53:00 PM 51.2717 -14.6508 279° West  Level Estimated
Tue 01:54:00 PM 51.2902 -14.8381 279° West  Level Estimated
Tue 01:55:00 PM 51.3084 -15.0261 279° West  Level Estimated
Tue 01:56:00 PM 51.3264 -15.2142 279° West  Level Estimated
Tue 01:57:00 PM 51.3440 -15.4024 279° West  Level Estimated
Tue 01:58:00 PM 51.3614 -15.5908 278° West  Level Estimated
Tue 01:59:00 PM 51.3784 -15.7793 278° West  Level Estimated
Tue 02:00:00 PM 51.3952 -15.9680 278° West  Level Estimated
Tue 02:01:00 PM 51.4116 -16.1568 278° West  Level Estimated
Tue 02:02:00 PM 51.4277 -16.3457 278° West  Level Estimated
Tue 02:03:00 PM 51.4436 -16.5348 278° West  Level Estimated
Tue 02:04:00 PM 51.4591 -16.7240 278° West  Level Estimated
Tue 02:05:00 PM 51.4743 -16.9133 277° West  Level Estimated
Tue 02:06:00 PM 51.4893 -17.1028 277° West  Level Estimated
Tue 02:07:00 PM 51.5039 -17.2924 277° West  Level Estimated
Tue 02:08:00 PM 51.5182 -17.4821 277° West  Level Estimated
Tue 02:09:00 PM 51.5322 -17.6719 277° West  Level Estimated
Tue 02:10:00 PM 51.5463 -17.8678 277° West  Level Estimated
Tue 02:11:00 PM 51.5601 -18.0638 277° West  Level Estimated
Tue 02:12:00 PM 51.5736 -18.2599 276° West  Level Estimated
Tue 02:13:00 PM 51.5867 -18.4561 276° West  Level Estimated
Tue 02:14:00 PM 51.5995 -18.6525 276° West  Level Estimated
Tue 02:15:00 PM 51.6120 -18.8489 276° West  Level Estimated
Tue 02:16:00 PM 51.6241 -19.0455 276° West  Level Estimated
Tue 02:17:00 PM 51.6360 -19.2422 276° West  Level Estimated
Tue 02:18:00 PM 51.6475 -19.4390 275° West  Level Estimated
Tue 02:19:00 PM 51.6586 -19.6358 275° West  Level Estimated
Tue 02:20:00 PM 51.6695 -19.8328 275° West  Level Estimated
Tue 02:20:30 PM 51.0000 -20.0000 274° West 435 501 38,000  Level ETMS Enhanced Traffic Management System
Tue 02:21:00 PM 51.6800 -20.0299 275° West  Level Estimated
Tue 02:22:00 PM 51.6902 -20.2270 275° West  Level Estimated
Tue 02:23:00 PM 51.7000 -20.4242 275° West  Level Estimated
Tue 02:24:00 PM 51.7095 -20.6216 275° West  Level Estimated
Tue 02:25:00 PM 51.7187 -20.8190 274° West  Level Estimated
Tue 02:26:00 PM 51.0436 -21.1514 273° West 435 501 38,000  Level FlightAware Transoceanic
Tue 02:27:00 PM 51.0497 -21.3435 273° West 435 501 38,000  Level FlightAware Transoceanic
Tue 02:28:00 PM 51.0556 -21.5357 273° West 435 501 38,000  Level FlightAware Transoceanic
Tue 02:29:00 PM 51.0611 -21.7279 273° West 435 501 38,000  Level FlightAware Transoceanic
Tue 02:30:00 PM 51.0663 -21.9201 272° West 435 501 38,000  Level FlightAware Transoceanic
Tue 02:31:00 PM 51.0712 -22.1124 272° West 435 501 38,000  Level FlightAware Transoceanic
Tue 02:32:00 PM 51.0758 -22.3048 272° West 435 501 38,000  Level FlightAware Transoceanic
Tue 02:33:00 PM 51.0801 -22.4971 272° West 435 501 38,000  Level FlightAware Transoceanic
Tue 02:34:00 PM 51.0840 -22.6895 272° West 435 501 38,000  Level FlightAware Transoceanic
Tue 02:35:00 PM 51.0877 -22.8819 272° West 435 501 38,000  Level FlightAware Transoceanic
Tue 02:36:00 PM 51.0910 -23.0744 271° West 435 501 38,000  Level FlightAware Transoceanic
Tue 02:37:00 PM 51.0940 -23.2669 271° West 435 501 38,000  Level FlightAware Transoceanic
Tue 02:38:00 PM 51.0967 -23.4594 271° West 435 501 38,000  Level FlightAware Transoceanic
Tue 02:39:00 PM 51.0990 -23.6519 271° West 435 501 38,000  Level FlightAware Transoceanic
Tue 02:40:00 PM 51.1011 -23.8445 271° West 435 501 38,000  Level FlightAware Transoceanic
Tue 02:41:00 PM 51.1028 -24.0370 271° West 435 501 38,000  Level FlightAware Transoceanic
Tue 02:42:00 PM 51.1043 -24.2296 271° West 435 501 38,000  Level FlightAware Transoceanic
Tue 02:43:00 PM 51.1054 -24.4222 270° West 435 501 38,000  Level FlightAware Transoceanic
Tue 02:44:00 PM 51.1062 -24.6148 270° West 435 501 38,000  Level FlightAware Transoceanic
Tue 02:45:00 PM 51.1066 -24.8074 270° West 435 501 38,000  Level FlightAware Transoceanic
Tue 02:46:00 PM 51.1068 -25.0000 270° West 435 501 38,000  Level FlightAware Transoceanic
Tue 02:47:00 PM 51.1066 -25.1926 270° West 435 501 38,000  Level FlightAware Transoceanic
Tue 02:48:00 PM 51.1062 -25.3852 270° West 435 501 38,000  Level FlightAware Transoceanic
Tue 02:49:00 PM 51.1054 -25.5778 270° West 435 501 38,000  Level FlightAware Transoceanic
Tue 02:50:00 PM 51.1043 -25.7704 269° West 435 501 38,000  Level FlightAware Transoceanic
Tue 02:51:00 PM 51.1028 -25.9630 269° West 435 501 38,000  Level FlightAware Transoceanic
Tue 02:52:00 PM 51.1011 -26.1555 269° West 435 501 38,000  Level FlightAware Transoceanic
Tue 02:53:00 PM 51.0990 -26.3481 269° West 435 501 38,000  Level FlightAware Transoceanic
Tue 02:54:00 PM 51.0967 -26.5406 269° West 435 501 38,000  Level FlightAware Transoceanic
Tue 02:55:00 PM 51.0940 -26.7331 269° West 435 501 38,000  Level FlightAware Transoceanic
Tue 02:56:00 PM 51.0910 -26.9256 269° West 435 501 38,000  Level FlightAware Transoceanic
Tue 02:57:00 PM 51.0877 -27.1181 268° West 435 501 38,000  Level FlightAware Transoceanic
Tue 02:58:00 PM 51.0840 -27.3105 268° West 435 501 38,000  Level FlightAware Transoceanic
Tue 02:59:00 PM 51.0801 -27.5029 268° West 435 501 38,000  Level FlightAware Transoceanic
Tue 03:00:00 PM 51.0758 -27.6952 268° West 435 501 38,000  Level FlightAware Transoceanic
Tue 03:01:00 PM 51.0712 -27.8876 268° West 435 501 38,000  Level FlightAware Transoceanic
Tue 03:02:00 PM 51.0663 -28.0799 268° West 435 501 38,000  Level FlightAware Transoceanic
Tue 03:03:00 PM 51.0611 -28.2721 267° West 435 501 38,000  Level FlightAware Transoceanic
Tue 03:04:00 PM 51.0556 -28.4643 267° West 435 501 38,000  Level FlightAware Transoceanic
Tue 03:05:00 PM 51.0497 -28.6565 267° West 435 501 38,000  Level FlightAware Transoceanic
Tue 03:06:00 PM 51.0436 -28.8486 267° West 435 501 38,000  Level FlightAware Transoceanic
Tue 03:07:00 PM 51.0371 -29.0406 267° West 435 501 38,000  Level FlightAware Transoceanic
Tue 03:08:00 PM 51.0303 -29.2326 267° West 435 501 38,000  Level FlightAware Transoceanic
Tue 03:09:00 PM 51.0232 -29.4245 267° West 435 501 38,000  Level FlightAware Transoceanic
Tue 03:10:00 PM 51.0158 -29.6164 266° West 435 501 38,000  Level FlightAware Transoceanic
Tue 03:11:00 PM 51.0080 -29.8083 266° West 435 501 38,000 Level FlightAware Transoceanic
Tue 03:12:00 PM 50.9999 -30.0027 266° West  Level FlightAware Approximate
Tue 03:13:00 PM 50.9997 -30.0054 265° West  Level FlightAware Approximate
Tue 03:14:00 PM 50.9887 -30.1995 265° West  Level FlightAware Approximate
Tue 03:15:00 PM 50.9774 -30.3935 265° West  Level FlightAware Approximate
Tue 03:16:00 PM 50.9662 -30.5817 265° West  Level FlightAware Approximate
Tue 03:17:00 PM 50.9546 -30.7698 264° West  Level FlightAware Approximate
Tue 03:18:00 PM 50.9427 -30.9578 264° West  Level FlightAware Approximate
Tue 03:19:00 PM 50.9306 -31.1457 264° West  Level FlightAware Approximate
Tue 03:20:00 PM 50.9181 -31.3335 264° West  Level FlightAware Approximate
Tue 03:21:00 PM 50.9053 -31.5212 264° West  Level FlightAware Approximate
Tue 03:22:00 PM 50.8923 -31.7088 264° West  Level FlightAware Approximate
Tue 03:23:00 PM 50.8789 -31.8963 264° West  Level FlightAware Approximate
Tue 03:24:00 PM 50.8652 -32.0837 263° West  Level FlightAware Approximate
Tue 03:25:00 PM 50.8513 -32.2710 263° West  Level FlightAware Approximate
Tue 03:26:00 PM 50.8370 -32.4581 263° West  Level FlightAware Approximate
Tue 03:27:00 PM 50.8224 -32.6452 263° West  Level FlightAware Approximate
Tue 03:28:00 PM 50.8075 -32.8321 263° West  Level FlightAware Approximate
Tue 03:29:00 PM 50.7924 -33.0189 263° West  Level FlightAware Approximate
Tue 03:30:00 PM 50.7769 -33.2056 263° West  Level FlightAware Approximate
Tue 03:31:00 PM 50.7612 -33.3922 262° West  Level FlightAware Approximate
Tue 03:32:00 PM 50.7451 -33.5786 262° West  Level FlightAware Approximate
Tue 03:33:00 PM 50.7287 -33.7649 262° West  Level FlightAware Approximate
Tue 03:34:00 PM 50.7121 -33.9511 262° West  Level FlightAware Approximate
Tue 03:35:00 PM 50.6951 -34.1371 262° West  Level FlightAware Approximate
Tue 03:36:00 PM 50.6779 -34.3230 262° West  Level FlightAware Approximate
Tue 03:37:00 PM 50.6603 -34.5088 262° West  Level FlightAware Approximate
Tue 03:38:00 PM 50.6425 -34.6944 261° West  Level FlightAware Approximate
Tue 03:39:00 PM 50.6244 -34.8799 261° West  Level FlightAware Approximate
Tue 03:40:00 PM 50.6059 -35.0652 261° West  Level FlightAware Approximate
Tue 03:41:00 PM 50.5872 -35.2504 261° West  Level FlightAware Approximate
Tue 03:42:00 PM 50.5682 -35.4355 261° West  Level FlightAware Approximate
Tue 03:43:00 PM 50.5489 -35.6203 261° West  Level FlightAware Approximate
Tue 03:44:00 PM 50.5293 -35.8051 261° West  Level FlightAware Approximate
Tue 03:45:00 PM 50.5094 -35.9897 260° West  Level FlightAware Approximate
Tue 03:46:00 PM 50.4892 -36.1741 260° West  Level FlightAware Approximate
Tue 03:47:00 PM 50.4688 -36.3584 260° West  Level FlightAware Approximate
Tue 03:48:00 PM 50.4480 -36.5425 260° West  Level FlightAware Approximate
Tue 03:49:00 PM 50.4269 -36.7264 260° West  Level FlightAware Approximate
Tue 03:50:00 PM 50.4056 -36.9102 260° West  Level FlightAware Approximate
Tue 03:51:00 PM 50.3840 -37.0938 260° West  Level FlightAware Approximate
Tue 03:52:00 PM 50.3621 -37.2773 259° West  Level FlightAware Approximate
Tue 03:53:00 PM 50.3399 -37.4606 259° West  Level FlightAware Approximate
Tue 03:54:00 PM 50.3173 -37.6437 259° West  Level FlightAware Approximate
Tue 03:55:00 PM 50.2946 -37.8266 259° West  Level FlightAware Approximate
Tue 03:56:00 PM 50.2715 -38.0093 259° West  Level FlightAware Approximate
Tue 03:57:00 PM 50.2481 -38.1919 259° West  Level FlightAware Approximate
Tue 03:58:00 PM 50.2245 -38.3743 259° West  Level FlightAware Approximate
Tue 03:59:00 PM 50.2006 -38.5565 258° West  Level FlightAware Approximate
Tue 04:00:00 PM 50.1763 -38.7386 258° West  Level FlightAware Approximate
Tue 04:01:00 PM 50.1518 -38.9204 258° West  Level FlightAware Approximate
Tue 04:02:00 PM 50.1271 -39.1021 258° West  Level FlightAware Approximate
Tue 04:03:00 PM 50.1020 -39.2836 258° West  Level FlightAware Approximate
Tue 04:04:00 PM 50.0766 -39.4648 258° West  Level FlightAware Approximate
Tue 04:05:00 PM 50.0510 -39.6459 258° West  Level FlightAware Approximate
Tue 04:06:00 PM 50.0251 -39.8268 257° West  Level FlightAware Approximate
Tue 04:07:00 PM 49.9995 -40.0081 265° West  Level FlightAware Approximate
Tue 04:08:00 PM 49.9888 -40.1930 265° West  Level FlightAware Approximate
Tue 04:09:00 PM 49.9777 -40.3777 265° West  Level FlightAware Approximate
Tue 04:10:00 PM 49.9664 -40.5624 265° West  Level FlightAware Approximate
Tue 04:11:00 PM 49.9548 -40.7470 264° West  Level FlightAware Approximate
Tue 04:12:00 PM 49.9428 -40.9315 264° West  Level FlightAware Approximate
Tue 04:13:00 PM 49.9306 -41.1159 264° West  Level FlightAware Approximate
Tue 04:14:00 PM 49.9181 -41.3002 264° West  Level FlightAware Approximate
Tue 04:15:00 PM 49.9053 -41.4845 264° West  Level FlightAware Approximate
Tue 04:16:00 PM 49.8922 -41.6686 264° West  Level FlightAware Approximate
Tue 04:17:00 PM 49.8789 -41.8526 264° West  Level FlightAware Approximate
Tue 04:18:00 PM 49.8652 -42.0365 263° West  Level FlightAware Approximate
Tue 04:19:00 PM 49.8512 -42.2203 263° West  Level FlightAware Approximate
Tue 04:20:00 PM 49.8370 -42.4040 263° West  Level FlightAware Approximate
Tue 04:21:00 PM 49.8224 -42.5876 263° West  Level FlightAware Approximate
Tue 04:22:00 PM 49.8076 -42.7711 263° West  Level FlightAware Approximate
Tue 04:23:00 PM 49.7925 -42.9544 263° West  Level FlightAware Approximate
Tue 04:24:00 PM 49.7771 -43.1377 263° West  Level FlightAware Approximate
Tue 04:25:00 PM 49.7614 -43.3208 263° West  Level FlightAware Approximate
Tue 04:26:00 PM 49.7454 -43.5038 262° West  Level FlightAware Approximate
Tue 04:27:00 PM 49.7291 -43.6867 262° West  Level FlightAware Approximate
Tue 04:28:00 PM 49.7125 -43.8695 262° West  Level FlightAware Approximate
Tue 04:29:00 PM 49.6957 -44.0521 262° West  Level FlightAware Approximate
Tue 04:30:00 PM 49.6785 -44.2347 262° West  Level FlightAware Approximate
Tue 04:31:00 PM 49.6611 -44.4170 262° West  Level FlightAware Approximate
Tue 04:32:00 PM 49.6434 -44.5993 262° West  Level FlightAware Approximate
Tue 04:33:00 PM 49.6254 -44.7814 261° West  Level FlightAware Approximate
Tue 04:34:00 PM 49.6071 -44.9634 261° West  Level FlightAware Approximate
Tue 04:35:00 PM 49.5885 -45.1453 261° West  Level FlightAware Approximate
Tue 04:36:00 PM 49.5697 -45.3270 261° West  Level FlightAware Approximate
Tue 04:37:00 PM 49.5505 -45.5086 261° West  Level FlightAware Approximate
Tue 04:38:00 PM 49.5311 -45.6900 261° West  Level FlightAware Approximate
Tue 04:39:00 PM 49.5114 -45.8713 261° West  Level FlightAware Approximate
Tue 04:40:00 PM 49.4914 -46.0524 260° West  Level FlightAware Approximate
Tue 04:41:00 PM 49.4711 -46.2334 260° West  Level FlightAware Approximate
Tue 04:42:00 PM 49.4506 -46.4142 260° West  Level FlightAware Approximate
Tue 04:43:00 PM 49.4297 -46.5949 260° West  Level FlightAware Approximate
Tue 04:44:00 PM 49.4086 -46.7754 260° West  Level FlightAware Approximate
Tue 04:45:00 PM 49.3872 -46.9558 260° West  Level FlightAware Approximate
Tue 04:46:00 PM 49.3655 -47.1360 260° West  Level FlightAware Approximate
Tue 04:47:00 PM 49.3436 -47.3160 259° West  Level FlightAware Approximate
Tue 04:48:00 PM 49.3213 -47.4959 259° West  Level FlightAware Approximate
Tue 04:49:00 PM 49.2998 -47.6759 260° West  Level FlightAware Approximate
Tue 04:50:00 PM 49.2782 -47.8558 260° West  Level FlightAware Approximate
Tue 04:51:00 PM 49.2563 -48.0356 260° West  Level FlightAware Approximate
Tue 04:52:00 PM 49.2341 -48.2152 259° West  Level FlightAware Approximate
Tue 04:53:00 PM 49.2117 -48.3946 259° West  Level FlightAware Approximate
Tue 04:54:00 PM 49.1890 -48.5739 259° West  Level FlightAware Approximate
Tue 04:55:00 PM 49.1660 -48.7530 259° West  Level FlightAware Approximate
Tue 04:56:00 PM 49.1427 -48.9319 259° West  Level FlightAware Approximate
Tue 04:57:00 PM 49.1192 -49.1107 259° West  Level FlightAware Approximate
Tue 04:58:00 PM 49.0953 -49.2897 259° West  Level FlightAware Approximate
Tue 04:58:57 PM 48.9430 -50.3380 258° West 460 529 39,000  Level FlightAware ADS-B
Tue 04:59:00 PM 49.0712 -49.4686 258° West  Level FlightAware Approximate
Tue 04:59:37 PM 48.9150 -50.4640 251° West 461 531 39,000  Level FlightAware ADS-B
Tue 05:00:22 PM 48.8830 -50.6040 251° West 461 531 39,000  Level FlightAware ADS-B
Tue 05:01:02 PM 48.8560 -50.7250 251° West 461 531 39,000  Level FlightAware ADS-B
Tue 05:01:42 PM 48.8280 -50.8490 251° West 459 528 39,000  Level FlightAware ADS-B
Tue 05:02:27 PM 48.7980 -50.9830 251° West 460 529 39,000  Level FlightAware ADS-B
Tue 05:03:07 PM 48.7700 -51.1020 250° West 460 529 39,000  Level FlightAware ADS-B
Tue 05:03:42 PM 48.7450 -51.2080 250° West 460 529 39,000  Level FlightAware ADS-B
Tue 05:04:04 PM 48.7000 -51.2167 250° West 460 529 39,000  Level Moncton Center
Tue 05:04:20 PM 48.7000 -51.2833 270° West 460 529 39,000  Level Gander Center
Tue 05:05:20 PM 48.6500 -51.4500 246° West 460 529 39,000  Level Gander Center
Tue 05:06:20 PM 48.6167 -51.6333 255° West 460 529 39,000  Level Gander Center
Tue 05:07:04 PM 48.5833 -51.7833 251° West 460 529 39,000  Level Moncton Center
Tue 05:08:04 PM 48.5333 -51.9500 246° West 460 529 39,000  Level Moncton Center
Tue 05:09:04 PM 48.4833 -52.1333 248° West 460 529 39,000  Level Moncton Center
Tue 05:10:04 PM 48.4500 -52.3167 255° West 460 529 39,000  Level Moncton Center
Tue 05:11:04 PM 48.4000 -52.4833 246° West 460 529 39,000  Level Moncton Center
Tue 05:11:20 PM 48.4000 -52.5667 270° West 460 529 39,000  Level Gander Center
Tue 05:12:04 PM 48.3500 -52.6833 237° Southwest 460 529 39,000  Level Moncton Center
Tue 05:13:04 PM 48.3333 -52.8667 262° West 460 529 39,000  Level Moncton Center
Tue 05:13:20 PM 48.3000 -52.9000 214° Southwest 460 529 39,000  Level Gander Center
Tue 05:14:20 PM 48.2667 -53.0833 255° West 460 529 39,000  Level Gander Center
Tue 05:15:01 PM 48.2167 -53.2000 237° Southwest 460 529 39,000  Level Gander Center
Tue 05:16:01 PM 48.1833 -53.4000 256° West 460 529 39,000  Level Gander Center
Tue 05:17:01 PM 48.1333 -53.5667 246° West 460 529 39,000  Level Gander Center
Tue 05:18:01 PM 48.1000 -53.7500 255° West 460 529 39,000  Level Gander Center
Tue 05:19:01 PM 48.0167 -53.9000 230° Southwest 460 529 39,000  Level Gander Center
Tue 05:20:01 PM 47.9667 -54.0833 248° West 470 541 39,000 200 Level Gander Center
Tue 05:21:01 PM 47.9333 -54.2667 255° West 470 541 39,400 488 Climbing Gander Center
Tue 05:22:04 PM 47.8667 -54.4667 244° Southwest 470 541 40,000 293 Climbing Moncton Center
Tue 05:23:04 PM 47.8167 -54.6500 248° West 470 541 40,000  Level Moncton Center
Tue 05:28:37 PM 47.5660 -55.6920 248° West 474 545 40,000  Level FlightAware ADS-B
Tue 05:29:32 PM 47.5180 -55.8600 247° West 472 543 40,000  Level FlightAware ADS-B
Tue 05:30:22 PM 47.4780 -56.0010 247° West 472 543 40,000  Level FlightAware ADS-B
Tue 05:31:02 PM 47.4490 -56.1020 247° West 472 543 40,000  Level FlightAware ADS-B
Tue 05:33:42 PM 47.3070 -56.5880 247° West 475 547 40,000  Level FlightAware ADS-B
Tue 05:34:32 PM 47.2640 -56.7370 247° West 475 547 40,000  Level FlightAware ADS-B
Tue 05:35:22 PM 47.2170 -56.8960 247° West 476 548 40,000  Level FlightAware ADS-B
Tue 05:36:47 PM 47.1430 -57.1480 247° West 477 549 40,000  Level FlightAware ADS-B
Tue 05:38:02 PM 47.0800 -57.3550 246° West 476 548 40,000  Level FlightAware ADS-B
Tue 05:38:52 PM 47.0420 -57.4810 246° West 476 548 40,000  Level FlightAware ADS-B
Tue 05:39:32 PM 47.0120 -57.5810 246° West 476 548 40,000  Level FlightAware ADS-B
Tue 05:40:12 PM 46.9810 -57.6810 246° West 476 548 40,000  Level FlightAware ADS-B
Tue 05:40:57 PM 46.9180 -57.8880 246° West 480 552 40,000  Level FlightAware ADS-B
Tue 05:41:37 PM 46.8810 -58.0070 246° West 481 554 40,000  Level FlightAware ADS-B
Tue 05:42:17 PM 46.8440 -58.1250 245° Southwest 481 554 40,000  Level FlightAware ADS-B
Tue 05:43:02 PM 46.8020 -58.2600 246° West 480 552 40,000  Level FlightAware ADS-B
Tue 05:43:42 PM 46.7660 -58.3770 246° West 481 554 40,000  Level FlightAware ADS-B
Tue 05:44:27 PM 46.7240 -58.5090 245° Southwest 481 554 40,000  Level FlightAware ADS-B
Tue 05:45:07 PM 46.6880 -58.6230 245° Southwest 482 555 40,000  Level FlightAware ADS-B
Tue 05:45:47 PM 46.6500 -58.7430 245° Southwest 483 556 40,000  Level FlightAware ADS-B
Tue 05:46:32 PM 46.6070 -58.8780 245° Southwest 484 557 40,000  Level FlightAware ADS-B
Tue 05:47:12 PM 46.5710 -58.9900 245° Southwest 484 557 40,000  Level FlightAware ADS-B
Tue 05:47:42 PM 46.5400 -59.0830 244° Southwest 484 557 40,000  Level FlightAware ADS-B
Tue 05:48:22 PM 46.5030 -59.1990 245° Southwest 484 557 40,000  Level FlightAware ADS-B
Tue 05:49:07 PM 46.4600 -59.3310 245° Southwest 484 557 40,000  Level FlightAware ADS-B
Tue 05:49:47 PM 46.4220 -59.4480 245° Southwest 485 558 40,000  Level FlightAware ADS-B
Tue 05:50:32 PM 46.3780 -59.5820 245° Southwest 486 559 40,000  Level FlightAware ADS-B
Tue 05:51:12 PM 46.3390 -59.6990 244° Southwest 486 559 40,000  Level FlightAware ADS-B
Tue 05:51:57 PM 46.2960 -59.8280 244° Southwest 486 559 40,000  Level FlightAware ADS-B
Tue 05:52:37 PM 46.2570 -59.9450 244° Southwest 485 558 40,000  Level FlightAware ADS-B
Tue 05:53:12 PM 46.2220 -60.0490 244° Southwest 486 559 40,000  Level FlightAware ADS-B
Tue 05:54:02 PM 46.1740 -60.1950 245° Southwest 486 559 40,000  Level FlightAware ADS-B
Tue 05:54:42 PM 46.1340 -60.3110 244° Southwest 486 559 40,000  Level FlightAware ADS-B
Tue 05:55:27 PM 46.0910 -60.4390 244° Southwest 486 559 40,000  Level FlightAware ADS-B
Tue 05:56:07 PM 46.0510 -60.5550 244° Southwest 486 559 40,000  Level FlightAware ADS-B
Tue 05:56:47 PM 46.0110 -60.6720 244° Southwest 486 559 40,000  Level FlightAware ADS-B
Tue 05:57:32 PM 45.9660 -60.8040 244° Southwest 486 559 40,000  Level FlightAware ADS-B
Tue 05:58:12 PM 45.9260 -60.9200 244° Southwest 486 559 40,000  Level FlightAware ADS-B
Tue 05:58:57 PM 45.8820 -61.0460 243° Southwest 486 559 40,000  Level FlightAware ADS-B
Tue 05:59:37 PM 45.8420 -61.1600 243° Southwest 485 558 40,000  Level FlightAware ADS-B
Tue 06:00:17 PM 45.8050 -61.2670 244° Southwest 484 557 40,000  Level FlightAware ADS-B
Tue 06:00:57 PM 45.7660 -61.3770 243° Southwest 484 557 40,000  Level FlightAware ADS-B
Tue 06:01:47 PM 45.7220 -61.4980 243° Southwest 484 557 40,000  Level FlightAware ADS-B
Tue 06:02:27 PM 45.6880 -61.5950 243° Southwest 484 557 40,000  Level FlightAware ADS-B
Tue 06:03:07 PM 45.6530 -61.6920 243° Southwest 484 557 40,000  Level FlightAware ADS-B
Tue 06:03:47 PM 45.6190 -61.7890 243° Southwest 484 557 40,000  Level FlightAware ADS-B
Tue 06:04:27 PM 45.5840 -61.8860 243° Southwest 484 557 40,000  Level FlightAware ADS-B
Tue 06:05:17 PM 45.5410 -62.0070 243° Southwest 484 557 40,000  Level FlightAware ADS-B
Tue 06:05:57 PM 45.5060 -62.1040 243° Southwest 484 557 40,000  Level FlightAware ADS-B
Tue 06:06:37 PM 45.4720 -62.2010 243° Southwest 484 557 40,000  Level FlightAware ADS-B
Tue 06:07:17 PM 45.4370 -62.2980 243° Southwest 484 557 40,000  Level FlightAware ADS-B
Tue 06:07:57 PM 45.4030 -62.3940 243° Southwest 484 557 40,000  Level FlightAware ADS-B
Tue 06:08:47 PM 45.3590 -62.5150 243° Southwest 484 557 40,000  Level FlightAware ADS-B
Tue 06:09:27 PM 45.3250 -62.6110 243° Southwest 484 557 40,000  Level FlightAware ADS-B
Tue 06:10:07 PM 45.2900 -62.7080 243° Southwest 484 557 40,000  Level FlightAware ADS-B
Tue 06:13:27 PM 44.9840 -63.5070 242° Southwest 486 559 40,000  Level FlightAware ADS-B
Tue 06:14:07 PM 44.9410 -63.6200 242° Southwest 486 559 40,000  Level FlightAware ADS-B
Tue 06:14:52 PM 44.8920 -63.7470 241° Southwest 487 560 40,000  Level FlightAware ADS-B
Tue 06:15:32 PM 44.8480 -63.8600 241° Southwest 487 560 40,000  Level FlightAware ADS-B
Tue 06:16:07 PM 44.8120 -63.9550 242° Southwest 488 562 40,000  Level FlightAware ADS-B
Tue 06:16:57 PM 44.7580 -64.0950 242° Southwest 487 560 40,000  Level FlightAware ADS-B
Tue 06:17:37 PM 44.7130 -64.2090 241° Southwest 487 560 40,000  Level FlightAware ADS-B
Tue 06:18:22 PM 44.6650 -64.3320 241° Southwest 487 560 40,000  Level FlightAware ADS-B
Tue 06:19:02 PM 44.6210 -64.4410 240° Southwest 487 560 40,000  Level FlightAware ADS-B
Tue 06:19:37 PM 44.5840 -64.5350 241° Southwest 487 560 40,000  Level FlightAware ADS-B
Tue 06:20:27 PM 44.5290 -64.6750 241° Southwest 485 558 40,000  Level FlightAware ADS-B
Tue 06:21:07 PM 44.4840 -64.7880 241° Southwest 483 556 40,000  Level FlightAware ADS-B
Tue 06:21:52 PM 44.4360 -64.9070 241° Southwest 482 555 40,000  Level FlightAware ADS-B
Tue 06:22:32 PM 44.3920 -65.0160 241° Southwest 483 556 40,000  Level FlightAware ADS-B
Tue 06:23:12 PM 44.3500 -65.1220 241° Southwest 484 557 40,000  Level FlightAware ADS-B
Tue 06:23:57 PM 44.2990 -65.2470 240° Southwest 487 560 40,000  Level FlightAware ADS-B
Tue 06:24:37 PM 44.2540 -65.3570 240° Southwest 488 562 40,000  Level FlightAware ADS-B
Tue 06:25:22 PM 44.2050 -65.4780 241° Southwest 488 562 40,000  Level FlightAware ADS-B
Tue 06:26:02 PM 44.1620 -65.5830 240° Southwest 485 558 40,000  Level FlightAware ADS-B
Tue 06:26:42 PM 44.1150 -65.6970 240° Southwest 484 557 40,000  Level FlightAware ADS-B
Tue 06:27:27 PM 44.0660 -65.8160 240° Southwest 484 557 40,000  Level FlightAware ADS-B
Tue 06:27:57 PM 44.0340 -65.8920 240° Southwest 484 557 40,000  Level FlightAware ADS-B
Tue 06:28:47 PM 43.9780 -66.0270 240° Southwest 484 557 40,000  Level FlightAware ADS-B
Tue 06:29:32 PM 43.9270 -66.1480 240° Southwest 484 557 40,000  Level FlightAware ADS-B
Tue 06:30:12 PM 43.8820 -66.2570 240° Southwest 485 558 40,000  Level FlightAware ADS-B
Tue 06:30:57 PM 43.8310 -66.3770 240° Southwest 485 558 40,000  Level FlightAware ADS-B
Tue 06:31:37 PM 43.7870 -66.4820 240° Southwest 485 558 40,000  Level FlightAware ADS-B
Tue 06:32:22 PM 43.7340 -66.6050 239° Southwest 484 557 40,000  Level FlightAware ADS-B
Tue 06:33:02 PM 43.6900 -66.7090 240° Southwest 484 557 40,000  Level FlightAware ADS-B
Tue 06:33:42 PM 43.6430 -66.8170 239° Southwest 484 557 40,000  Level FlightAware ADS-B
Tue 06:34:27 PM 43.5930 -66.9350 240° Southwest 482 555 40,000  Level FlightAware ADS-B
Tue 06:35:07 PM 43.5480 -67.0400 239° Southwest 482 555 40,000  Level FlightAware ADS-B
Tue 06:35:47 PM 43.5030 -67.1480 240° Southwest 482 555 40,000  Level FlightAware ADS-B
Tue 06:36:32 PM 43.4530 -67.2660 240° Southwest 483 556 40,000  Level FlightAware ADS-B
Tue 06:37:12 PM 43.4070 -67.3740 240° Southwest 484 557 40,000  Level FlightAware ADS-B
Tue 06:37:57 PM 43.3570 -67.4930 240° Southwest 485 558 40,000  Level FlightAware ADS-B
Tue 06:38:37 PM 43.3120 -67.5990 240° Southwest 485 558 40,000  Level FlightAware ADS-B
Tue 06:39:22 PM 43.2610 -67.7180 240° Southwest 485 558 40,000  Level FlightAware ADS-B
Tue 06:39:57 PM 43.2220 -67.8090 240° Southwest 485 558 40,000  Level FlightAware ADS-B
Tue 06:40:42 PM 43.1690 -67.9300 239° Southwest 482 555 40,000  Level FlightAware ADS-B
Tue 06:41:22 PM 43.1260 -68.0300 240° Southwest 482 555 40,000  Level FlightAware ADS-B
Tue 06:41:57 PM 43.0840 -68.1280 240° Southwest 482 555 40,000  Level FlightAware ADS-B
Tue 06:42:50 PM 43.0300 -68.2556 240° Southwest 489 563 40,000 -53 Level Boston Center
Tue 06:43:50 PM 42.9608 -68.4136 239° Southwest 489 563 39,900  Descending Boston Center
Tue 06:44:50 PM 42.9047 -68.5422 239° Southwest 489 563 40,000 50 Climbing Boston Center
Tue 06:45:50 PM 42.8133 -68.7406 238° Southwest 489 563 40,000  Level Boston Center
Tue 06:46:50 PM 42.7433 -68.8975 239° Southwest 489 563 40,000  Level Boston Center
Tue 06:47:50 PM 42.6750 -69.0539 239° Southwest 489 563 40,000 -45 Level Boston Center
Tue 06:49:02 PM 42.6047 -69.2128 239° Southwest 489 563 39,900  Descending Boston Center
Tue 06:50:02 PM 42.5239 -69.3778 236° Southwest 482 555 40,000 50 Climbing Boston Center
Tue 06:51:02 PM 42.4689 -69.5069 240° Southwest 488 562 40,000  Level Boston Center
Tue 06:52:02 PM 42.3858 -69.6936 239° Southwest 493 567 40,000  Level Boston Center
Tue 06:53:02 PM 42.3144 -69.8456 238° Southwest 493 567 40,000 -50 Level Boston Center
Tue 06:54:02 PM 42.2469 -70.0000 239° Southwest 487 560 39,900  Descending Boston Center
Tue 06:55:02 PM 42.1731 -70.1514 237° Southwest 487 560 40,000 50 Climbing Boston Center
Tue 06:56:02 PM 42.0989 -70.3053 237° Southwest 492 566 40,000  Level Boston Center
Tue 06:57:14 PM 42.0331 -70.4583 240° Southwest 486 559 40,000  Level Boston Center
Tue 06:58:14 PM 41.9736 -70.6500 247° West 475 547 40,000  Level Boston Center
Tue 06:59:14 PM 41.9219 -70.8106 247° West 470 541 40,000 -1,679 Level Boston Center
Tue 07:04:47 PM 41.5210 -71.6310 247° West 472 543 29,000 -2,005 Descending FlightAware ADS-B
Tue 07:05:22 PM 41.4650 -71.6990 222° Southwest 465 535 27,700 -2,250 Descending FlightAware ADS-B
Tue 07:06:07 PM 41.3950 -71.7840 222° Southwest 454 522 26,000 -2,133 Descending FlightAware ADS-B
Tue 07:06:52 PM 41.3520 -71.8360 222° Southwest 446 513 24,500 -1,350 Descending FlightAware ADS-B
Tue 07:07:27 PM 41.2780 -71.9250 222° Southwest 443 510 24,200 -1,624 Descending FlightAware ADS-B
Tue 07:08:17 PM 41.1930 -72.0180 219° Southwest 436 502 22,200 -1,400 Descending FlightAware ADS-B
Tue 07:08:57 PM 41.1420 -72.0720 219° Southwest 436 502 22,100 -75 Descending FlightAware ADS-B
Tue 07:09:37 PM 41.0880 -72.1280 218° Southwest 436 502 22,100  Level FlightAware ADS-B
Tue 07:10:17 PM 41.0340 -72.1840 218° Southwest 436 502 22,100  Level FlightAware ADS-B
Tue 07:10:57 PM 40.9800 -72.2400 218° Southwest 436 502 22,100 -5,500 Level FlightAware ADS-B
Tue 07:11:17 PM 41.0310 -72.3940 294° West 380 437 16,600 -6,600 Descending FlightAware ADS-B
Tue 07:11:57 PM 41.0100 -72.4800 252° West 369 425 15,500 -1,575 Descending FlightAware ADS-B
Tue 07:12:37 PM 40.9890 -72.5630 251° West 351 404 14,500 -706 Descending FlightAware ADS-B
Tue 07:13:22 PM 40.9680 -72.6440 251° West 351 404 14,500  Level FlightAware ADS-B
Tue 07:14:02 PM 40.9500 -72.7130 251° West 351 404 14,500 -1,740 Level FlightAware ADS-B
Tue 07:15:02 PM 40.9030 -72.8250 241° Southwest 305 351 11,600 -1,740 Descending FlightAware ADS-B
Tue 07:15:42 PM 40.8610 -72.8760 223° Southwest 304 350 11,600 -141 Level FlightAware ADS-B
Tue 07:16:27 PM 40.8190 -72.9320 225° Southwest 306 352 11,400 -565 Descending FlightAware ADS-B
Tue 07:17:07 PM 40.7780 -72.9870 225° Southwest 304 350 10,800 -857 Descending FlightAware ADS-B
Tue 07:17:37 PM 40.7520 -73.0300 231° Southwest 302 348 10,400 -857 Descending FlightAware ADS-B
Tue 07:18:17 PM 40.7380 -73.0990 255° West 300 345 9,800 -943 Descending FlightAware ADS-B
Tue 07:18:47 PM 40.7270 -73.1520 255° West 297 342 9,300 -1,091 Descending FlightAware ADS-B
Tue 07:19:12 PM 40.7180 -73.1990 256° West 295 339 8,800 -1,091 Descending FlightAware ADS-B
Tue 07:19:42 PM 40.7080 -73.2510 256° West 290 334 8,300 -982 Descending FlightAware ADS-B
Tue 07:20:07 PM 40.7000 -73.2920 256° West 292 336 7,900 -873 Descending FlightAware ADS-B
Tue 07:20:37 PM 40.6900 -73.3420 255° West 289 333 7,500 -800 Descending FlightAware ADS-B
Tue 07:21:07 PM 40.6690 -73.3860 238° Southwest 288 331 7,100 -764 Descending FlightAware ADS-B
Tue 07:21:32 PM 40.6390 -73.4100 211° Southwest 291 335 6,800 -436 Descending FlightAware ADS-B
Tue 07:22:02 PM 40.6050 -73.4330 207° Southwest 288 331 6,700 -200 Descending FlightAware ADS-B
Tue 07:22:32 PM 40.5680 -73.4580 207° Southwest 284 327 6,600 -109 Descending FlightAware ADS-B
Tue 07:22:57 PM 40.5390 -73.4780 208° Southwest 282 325 6,600  Level FlightAware ADS-B
Tue 07:23:22 PM 40.5100 -73.4980 208° Southwest 282 325 6,600  Level FlightAware ADS-B
Tue 07:23:32 PM 40.4976 -73.5071 209° Southwest 283 326 6,600  Level FlightAware ADS-B
Tue 07:23:47 PM 40.4800 -73.5196 208° Southwest 282 325 6,600  Level FlightAware ADS-B
Tue 07:24:03 PM 40.4618 -73.5327 209° Southwest 282 325 6,600  Level FlightAware ADS-B
Tue 07:24:20 PM 40.4426 -73.5464 209° Southwest 281 323 6,600  Level FlightAware ADS-B
Tue 07:24:35 PM 40.4252 -73.5588 208° Southwest 283 326 6,600  Level FlightAware ADS-B
Tue 07:24:53 PM 40.4042 -73.5734 208° Southwest 282 325 6,600  Level FlightAware ADS-B
Tue 07:25:08 PM 40.3870 -73.5854 208° Southwest 279 321 6,600 -375 Level FlightAware ADS-B
Tue 07:25:25 PM 40.3680 -73.5986 208° Southwest 279 321 6,400 -649 Descending FlightAware ADS-B
Tue 07:25:45 PM 40.3452 -73.6147 208° Southwest 278 320 6,200 -686 Descending FlightAware ADS-B
Tue 07:26:00 PM 40.3279 -73.6270 208° Southwest 278 320 6,000 -909 Descending FlightAware ADS-B
Tue 07:26:18 PM 40.3072 -73.6415 208° Southwest 280 322 5,700 -800 Descending FlightAware ADS-B
Tue 07:26:45 PM 40.2822 -73.6719 223° Southwest 281 323 5,400 -698 Descending FlightAware ADS-B
Tue 07:27:01 PM 40.2731 -73.6964 244° Southwest 281 323 5,200 -750 Descending FlightAware ADS-B
Tue 07:27:17 PM 40.2665 -73.7216 251° West 281 323 5,000 -808 Descending FlightAware ADS-B
Tue 07:27:53 PM 40.2734 -73.7799 279° West 281 323 4,500 -735 Descending FlightAware ADS-B
Tue 07:28:06 PM 40.2822 -73.7977 303° West 271 312 4,400 -600 Descending FlightAware ADS-B
Tue 07:28:23 PM 40.2946 -73.8210 305° West 269 310 4,200 -706 Descending FlightAware ADS-B
Tue 07:28:40 PM 40.3068 -73.8436 305° West 269 310 4,000 -727 Descending FlightAware ADS-B
Tue 07:28:56 PM 40.3182 -73.8645 306° West 263 303 3,800 -667 Descending FlightAware ADS-B
Tue 07:29:16 PM 40.3320 -73.8899 305° West 254 292 3,600 -324 Descending FlightAware ADS-B
Tue 07:29:33 PM 40.3431 -73.9104 305° West 243 280 3,600 -353 Level FlightAware ADS-B
Tue 07:29:50 PM 40.3537 -73.9307 304° West 231 266 3,400 -563 Descending FlightAware ADS-B
Tue 07:30:05 PM 40.3628 -73.9480 305° West 228 262 3,300 -231 Descending FlightAware ADS-B
Tue 07:30:16 PM 40.3682 -73.9606 299° West 214 246 3,300 -273 Level FlightAware ADS-B
Tue 07:30:27 PM 40.3719 -73.9738 290° West 209 241 3,200 -571 Descending FlightAware ADS-B
Tue 07:30:37 PM 40.3746 -73.9854 287° West 205 236 3,100 -400 Descending FlightAware ADS-B
Tue 07:30:57 PM 40.3791 -74.0087 284° West 198 228 3,000 -293 Descending FlightAware ADS-B
Tue 07:31:18 PM 40.3843 -74.0333 286° West 197 227 2,900 -387 Descending FlightAware ADS-B
Tue 07:31:28 PM 40.3887 -74.0427 302° West 192 221 2,800 -444 Descending FlightAware ADS-B
Tue 07:31:45 PM 40.4014 -74.0521 331° Northwest 182 209 2,700 -214 Descending FlightAware ADS-B
Tue 07:31:56 PM 40.4101 -74.0513 North 176 203 2,700 -182 Level FlightAware ADS-B
Tue 07:32:18 PM 40.4258 -74.0404 28° Northeast 173 199 2,600 -98 Descending FlightAware ADS-B
Tue 07:32:57 PM 40.4527 -74.0194 31° Northeast 172 198 2,600  Level FlightAware ADS-B
Tue 07:33:23 PM 40.4699 -74.0064 30° Northeast 168 193 2,600  Level FlightAware ADS-B
Tue 07:34:12 PM 40.5030 -73.9820 29° Northeast 172 198 2,600  Level FlightAware ADS-B
Tue 07:34:37 PM 40.5190 -73.9710 28° Northeast 171 197 2,600 -218 Level FlightAware ADS-B
Tue 07:35:07 PM 40.5400 -73.9550 30° Northeast 163 188 2,400 -764 Descending FlightAware ADS-B
Tue 07:35:32 PM 40.5570 -73.9400 34° Northeast 163 188 1,900 -1,091 Descending FlightAware ADS-B
Tue 07:36:02 PM 40.5750 -73.9260 31° Northeast 168 193 1,400 -800 Descending FlightAware ADS-B
Tue 07:36:32 PM 40.5957 -73.9083 33° Northeast 157 181 1,100 -212 Descending FlightAware ADS-B
Tue 07:37:27 PM 40.6320 -73.8830 28° Northeast 167 192 1,100 -225 Level FlightAware ADS-B
Tue 07:37:52 PM 40.6480 -73.8680 35° Northeast 152 175 800 -655 Descending FlightAware ADS-B
Tue 07:38:22 PM 40.6610 -73.8510 45° Northeast 139 160 500 -600 Descending FlightAware ADS-B
Tue 07:38:52 PM 40.6660 -73.8260 75° East 135 155 200 -600 Descending FlightAware ADS-B
Tue 07:39:32 PM 40.6600 -73.7950 104° East 131 151 -300 Descending FlightAware ADS-B

Login

Don't have an account? Register now (free) for customized features, flight alerts, and more!